createdAt,value
2023-05-22T00:00:15.754Z,30.17
2023-05-22T00:02:44.440Z,30.09
2023-05-22T00:05:13.283Z,30.37
2023-05-22T00:07:43.277Z,30.22
2023-05-22T00:10:13.498Z,30.06
2023-05-22T00:12:41.533Z,30.07
2023-05-22T00:15:11.434Z,30.20
2023-05-22T00:17:39.696Z,30.39
2023-05-22T00:20:10.792Z,30.43
2023-05-22T00:22:39.008Z,30.44
2023-05-22T00:25:08.527Z,30.35
2023-05-22T00:27:38.257Z,30.38
2023-05-22T00:30:08.493Z,30.68
2023-05-22T00:32:36.933Z,30.42
2023-05-22T00:35:05.285Z,30.44
2023-05-22T00:37:33.320Z,30.45
2023-05-22T00:40:01.315Z,30.56
2023-05-22T00:42:29.613Z,30.56
2023-05-22T00:44:59.098Z,30.67
2023-05-22T00:47:27.253Z,30.69
2023-05-22T00:49:55.811Z,30.64
2023-05-22T00:52:24.325Z,30.61
2023-05-22T00:54:55.033Z,30.75
2023-05-22T00:57:24.574Z,30.80
2023-05-22T00:59:53.031Z,30.75
2023-05-22T01:02:23.135Z,30.65
2023-05-22T01:04:51.141Z,30.83
2023-05-22T01:07:19.377Z,30.76
2023-05-22T01:09:47.854Z,30.74
2023-05-22T01:12:25.540Z,30.80
2023-05-22T01:15:01.065Z,30.76
2023-05-22T01:17:38.134Z,30.91
2023-05-22T01:20:14.375Z,30.85
2023-05-22T01:23:08.883Z,30.83
2023-05-22T01:26:02.804Z,30.83
2023-05-22T01:29:06.208Z,30.88
2023-05-22T01:31:40.456Z,31.01
2023-05-22T01:34:12.615Z,31.03
2023-05-22T01:36:43.067Z,31.12
2023-05-22T01:39:12.660Z,31.09
2023-05-22T01:41:42.277Z,31.33
2023-05-22T01:44:12.101Z,31.45
2023-05-22T01:46:41.467Z,31.29
2023-05-22T01:49:10.459Z,31.21
2023-05-22T01:51:48.984Z,31.25
2023-05-22T01:54:24.143Z,31.30
2023-05-22T01:56:56.195Z,31.45
2023-05-22T01:59:32.911Z,31.38
2023-05-22T02:02:08.053Z,31.26
2023-05-22T02:04:40.420Z,31.32
2023-05-22T02:07:12.594Z,31.41
2023-05-22T02:09:42.784Z,31.27
2023-05-22T02:12:14.124Z,31.33
2023-05-22T02:14:43.805Z,31.40
2023-05-22T02:17:13.107Z,31.31
2023-05-22T02:19:41.070Z,31.33
2023-05-22T02:22:13.802Z,31.32
2023-05-22T02:24:42.785Z,31.30
2023-05-22T02:27:10.833Z,31.36
2023-05-22T02:29:39.022Z,31.49
2023-05-22T02:32:07.821Z,31.47
2023-05-22T02:34:37.964Z,31.48
2023-05-22T02:37:07.209Z,31.49
2023-05-22T02:39:35.235Z,31.45
2023-05-22T02:42:03.676Z,31.80
2023-05-22T02:44:31.788Z,31.57
2023-05-22T02:47:00.365Z,31.86
2023-05-22T02:49:28.508Z,31.82
2023-05-22T02:51:57.863Z,31.82
2023-05-22T02:54:26.082Z,31.82
2023-05-22T02:56:54.173Z,31.75
2023-05-22T02:59:22.231Z,31.85
2023-05-22T03:01:50.854Z,31.74
2023-05-22T03:04:18.861Z,31.75
2023-05-22T03:06:46.995Z,31.93
2023-05-22T03:09:16.548Z,31.84
2023-05-22T03:11:45.722Z,31.87
2023-05-22T03:14:13.737Z,31.98
2023-05-22T03:16:42.407Z,32.03
2023-05-22T03:19:11.552Z,31.76
2023-05-22T03:21:39.753Z,31.85
2023-05-22T03:24:09.138Z,32.03
2023-05-22T03:26:38.502Z,32.08
2023-05-22T03:29:09.937Z,32.12
2023-05-22T03:31:41.328Z,31.95
2023-05-22T03:34:12.409Z,31.97
2023-05-22T03:36:42.059Z,32.17
2023-05-22T03:39:10.078Z,32.09
2023-05-22T03:41:44.603Z,32.07
2023-05-22T03:44:12.801Z,32.22
2023-05-22T03:46:40.853Z,32.22
2023-05-22T03:49:08.949Z,32.32
2023-05-22T03:51:38.404Z,32.30
2023-05-22T03:54:06.813Z,32.29
2023-05-22T03:56:34.791Z,32.25
2023-05-22T03:59:05.231Z,32.37
2023-05-22T04:01:33.286Z,32.40
2023-05-22T04:04:02.063Z,32.25
2023-05-22T04:06:32.957Z,32.37
2023-05-22T04:09:01.937Z,32.39
2023-05-22T04:11:32.225Z,32.42
2023-05-22T04:14:05.791Z,32.29
2023-05-22T04:16:33.847Z,32.43
2023-05-22T04:19:03.378Z,32.31
2023-05-22T04:21:34.175Z,32.46
2023-05-22T04:24:06.989Z,32.35
2023-05-22T04:26:36.084Z,32.25
2023-05-22T04:29:10.265Z,32.35
2023-05-22T04:31:38.471Z,32.33
2023-05-22T04:34:07.836Z,32.27
2023-05-22T04:36:35.916Z,32.54
2023-05-22T04:39:04.157Z,32.38
2023-05-22T04:41:32.515Z,32.38
2023-05-22T04:44:00.552Z,32.18
2023-05-22T04:46:30.035Z,32.45
2023-05-22T04:49:02.119Z,32.28
2023-05-22T04:51:31.173Z,32.40
2023-05-22T04:53:59.478Z,32.29
2023-05-22T04:56:36.127Z,32.56
2023-05-22T04:59:08.850Z,32.43
2023-05-22T05:01:38.849Z,32.52
2023-05-22T05:04:06.997Z,32.67
2023-05-22T05:06:35.885Z,32.87
2023-05-22T05:09:04.567Z,33.05
2023-05-22T05:11:32.707Z,33.12
2023-05-22T05:14:00.749Z,33.15
2023-05-22T05:16:30.269Z,33.06
2023-05-22T05:18:59.758Z,32.92
2023-05-22T05:21:28.573Z,32.81
2023-05-22T05:24:01.004Z,32.95
2023-05-22T05:26:29.111Z,32.67
2023-05-22T05:28:57.537Z,32.51
2023-05-22T05:31:33.017Z,32.56
2023-05-22T05:34:34.808Z,31.99
2023-05-22T05:37:11.864Z,32.09
2023-05-22T05:39:40.150Z,32.22
2023-05-22T05:42:10.263Z,32.17
2023-05-22T05:44:38.469Z,31.91
2023-05-22T05:47:08.548Z,31.41
2023-05-22T05:49:38.366Z,31.18
2023-05-22T05:52:08.013Z,31.68
2023-05-22T05:54:37.224Z,31.06
2023-05-22T05:57:12.506Z,30.99
2023-05-22T05:59:40.530Z,30.77
2023-05-22T06:02:37.648Z,30.82
2023-05-22T06:05:09.202Z,31.16
2023-05-22T06:07:40.008Z,31.00
2023-05-22T06:10:11.914Z,30.75
2023-05-22T06:12:52.804Z,30.71
2023-05-22T06:15:21.234Z,30.83
2023-05-22T06:17:49.299Z,30.36
2023-05-22T06:20:18.998Z,30.62
2023-05-22T06:22:47.015Z,30.29
2023-05-22T06:25:15.130Z,30.30
2023-05-22T06:27:43.176Z,30.36
2023-05-22T06:30:12.180Z,30.33
2023-05-22T06:32:40.849Z,30.42
2023-05-22T06:35:10.364Z,30.68
2023-05-22T06:37:39.728Z,30.36
2023-05-22T06:40:10.122Z,30.25
2023-05-22T06:42:44.911Z,30.37
2023-05-22T06:45:31.610Z,30.23
2023-05-22T06:48:19.885Z,30.45
2023-05-22T06:51:26.816Z,30.01
2023-05-22T06:54:07.313Z,30.16
2023-05-22T06:56:37.678Z,29.93
2023-05-22T06:59:11.975Z,29.86
2023-05-22T07:02:03.377Z,29.72
2023-05-22T07:04:54.497Z,29.61
2023-05-22T07:07:29.684Z,29.65
2023-05-22T07:09:59.564Z,29.80
2023-05-22T07:12:29.671Z,29.76
2023-05-22T07:15:00.037Z,29.23
2023-05-22T07:17:28.442Z,29.11
2023-05-22T07:19:57.705Z,29.44
2023-05-22T07:22:26.712Z,29.58
2023-05-22T07:24:56.546Z,29.11
2023-05-22T07:27:30.956Z,29.14
2023-05-22T07:30:00.012Z,28.92
2023-05-22T07:32:28.125Z,28.80
2023-05-22T07:34:57.482Z,28.78
2023-05-22T07:37:25.907Z,28.33
2023-05-22T07:39:54.003Z,28.51
2023-05-22T07:42:22.079Z,28.52
2023-05-22T07:44:56.298Z,28.40
2023-05-22T07:47:26.435Z,28.36
2023-05-22T07:49:54.952Z,27.94
2023-05-22T07:52:23.836Z,28.46
2023-05-22T07:54:53.087Z,28.08
2023-05-22T07:57:23.012Z,27.89
2023-05-22T07:59:52.063Z,27.91
2023-05-22T08:02:22.477Z,28.10
2023-05-22T08:04:50.720Z,27.89
2023-05-22T08:07:18.704Z,27.74
2023-05-22T08:09:46.961Z,27.87
2023-05-22T08:12:14.922Z,27.37
2023-05-22T08:14:42.991Z,27.79
2023-05-22T08:17:11.106Z,27.77
2023-05-22T08:19:41.089Z,27.56
2023-05-22T08:22:09.361Z,27.71
2023-05-22T08:24:37.406Z,27.27
2023-05-22T08:27:05.809Z,27.72
2023-05-22T08:29:33.999Z,27.28
2023-05-22T08:32:02.256Z,27.63
2023-05-22T08:34:30.349Z,27.18
2023-05-22T08:37:00.167Z,27.50
2023-05-22T08:39:28.419Z,27.15
2023-05-22T08:41:56.648Z,27.25
2023-05-22T08:44:25.259Z,27.41
2023-05-22T08:46:53.660Z,27.32
2023-05-22T08:49:24.022Z,27.46
2023-05-22T08:51:57.675Z,27.60
2023-05-22T08:54:28.088Z,27.63
2023-05-22T08:56:57.625Z,27.33
2023-05-22T08:59:26.331Z,27.65
2023-05-22T09:01:54.975Z,27.68
2023-05-22T09:04:24.242Z,27.20
2023-05-22T09:06:52.767Z,27.28
2023-05-22T09:09:21.201Z,27.71
2023-05-22T09:11:50.812Z,27.12
2023-05-22T09:14:19.998Z,27.55
2023-05-22T09:16:49.647Z,27.56
2023-05-22T09:19:17.733Z,27.60
2023-05-22T09:21:45.825Z,27.24
2023-05-22T09:24:13.910Z,27.25
2023-05-22T09:26:42.261Z,27.55
2023-05-22T09:29:11.572Z,27.30
2023-05-22T09:31:44.622Z,27.19
2023-05-22T09:34:15.816Z,27.59
2023-05-22T09:36:44.438Z,27.39
2023-05-22T09:39:12.519Z,27.70
2023-05-22T09:41:41.435Z,27.27
2023-05-22T09:44:17.402Z,27.37
2023-05-22T09:46:48.046Z,27.34
2023-05-22T09:49:17.078Z,27.91
2023-05-22T09:51:48.805Z,27.71
2023-05-22T09:54:18.117Z,27.85
2023-05-22T09:56:50.226Z,27.46
2023-05-22T09:59:23.616Z,27.60
2023-05-22T10:01:51.957Z,27.83
2023-05-22T10:04:23.098Z,27.85
2023-05-22T10:06:52.777Z,27.54
2023-05-22T10:09:25.144Z,27.68
2023-05-22T10:11:56.194Z,27.56
2023-05-22T10:14:28.178Z,27.48
2023-05-22T10:17:02.121Z,27.68
2023-05-22T10:19:32.810Z,27.94
2023-05-22T10:22:02.127Z,27.64
2023-05-22T10:24:30.984Z,28.08
2023-05-22T10:26:59.113Z,27.73
2023-05-22T10:29:35.287Z,27.82
2023-05-22T10:32:11.291Z,28.02
2023-05-22T10:34:55.117Z,27.97
2023-05-22T10:37:38.731Z,28.06
2023-05-22T10:40:12.244Z,27.96
2023-05-22T10:42:41.460Z,27.81
2023-05-22T10:45:12.301Z,27.54
2023-05-22T10:47:41.393Z,27.99
2023-05-22T10:50:11.498Z,28.10
2023-05-22T10:52:40.819Z,27.96
2023-05-22T10:55:09.777Z,27.57
2023-05-22T10:57:39.395Z,27.58
2023-05-22T11:00:11.333Z,27.66
2023-05-22T11:02:44.509Z,27.62
2023-05-22T11:05:36.526Z,28.17
2023-05-22T11:08:12.030Z,27.84
2023-05-22T11:10:58.388Z,28.09
2023-05-22T11:13:29.246Z,28.14
2023-05-22T11:15:59.204Z,28.17
2023-05-22T11:18:30.093Z,28.15
2023-05-22T11:21:00.619Z,28.51
2023-05-22T11:23:28.818Z,28.54
2023-05-22T11:25:56.854Z,28.09
2023-05-22T11:28:25.565Z,27.94
2023-05-22T11:30:55.004Z,28.22
2023-05-22T11:33:25.208Z,28.00
2023-05-22T11:35:54.990Z,28.51
2023-05-22T11:38:23.035Z,28.18
2023-05-22T11:40:53.184Z,28.26
2023-05-22T11:43:31.513Z,28.61
2023-05-22T11:46:02.682Z,28.65
2023-05-22T11:48:32.129Z,28.29
2023-05-22T11:51:00.549Z,28.53
2023-05-22T11:53:28.626Z,28.54
2023-05-22T11:55:56.593Z,28.10
2023-05-22T11:58:29.640Z,28.29
2023-05-22T12:01:02.651Z,28.43
2023-05-22T12:03:33.230Z,28.26
2023-05-22T12:06:02.791Z,28.60
2023-05-22T12:08:31.181Z,28.69
2023-05-22T12:10:59.374Z,28.65
2023-05-22T12:13:29.072Z,28.72
2023-05-22T12:16:00.362Z,28.16
2023-05-22T12:18:28.816Z,28.62
2023-05-22T12:20:58.158Z,28.33
2023-05-22T12:23:26.998Z,28.32
2023-05-22T12:26:02.318Z,28.77
2023-05-22T12:28:32.988Z,28.67
2023-05-22T12:31:01.358Z,28.76
2023-05-22T12:33:30.195Z,28.51
2023-05-22T12:35:59.652Z,28.61
2023-05-22T12:38:28.464Z,28.85
2023-05-22T12:40:56.751Z,28.49
2023-05-22T12:43:26.486Z,28.70
2023-05-22T12:45:54.653Z,28.88
2023-05-22T12:48:22.947Z,29.06
2023-05-22T12:50:51.068Z,28.96
2023-05-22T12:53:20.822Z,28.69
2023-05-22T12:55:48.835Z,29.03
2023-05-22T12:58:16.854Z,28.81
2023-05-22T13:00:44.925Z,28.66
2023-05-22T13:03:13.189Z,28.52
2023-05-22T13:05:42.081Z,28.31
2023-05-22T13:08:10.389Z,28.53
2023-05-22T13:10:39.764Z,28.69
2023-05-22T13:13:07.741Z,28.35
2023-05-22T13:15:36.202Z,28.35
2023-05-22T13:18:04.605Z,28.27
2023-05-22T13:20:32.804Z,28.31
2023-05-22T13:23:01.119Z,28.41
2023-05-22T13:25:29.285Z,28.33
2023-05-22T13:27:59.852Z,28.73
2023-05-22T13:30:28.451Z,28.59
2023-05-22T13:32:56.744Z,28.23
2023-05-22T13:35:25.413Z,28.74
2023-05-22T13:37:53.443Z,28.39
2023-05-22T13:40:21.657Z,28.76
2023-05-22T13:42:49.697Z,28.29
2023-05-22T13:45:19.186Z,28.51
2023-05-22T13:47:47.332Z,28.40
2023-05-22T13:50:15.359Z,28.21
2023-05-22T13:52:43.283Z,28.64
2023-05-22T13:55:11.468Z,28.58
2023-05-22T13:57:40.674Z,28.68
2023-05-22T14:00:10.115Z,28.71
2023-05-22T14:02:39.724Z,28.57
2023-05-22T14:05:09.282Z,28.56
2023-05-22T14:07:37.345Z,28.62
2023-05-22T14:10:05.906Z,28.37
2023-05-22T14:12:34.051Z,28.13
2023-05-22T14:15:02.419Z,28.17
2023-05-22T14:17:30.526Z,28.32
2023-05-22T14:20:00.155Z,28.00
2023-05-22T14:22:28.316Z,28.10
2023-05-22T14:24:56.949Z,28.07
2023-05-22T14:27:24.952Z,28.19
2023-05-22T14:29:52.974Z,27.87
2023-05-22T14:32:21.565Z,28.15
2023-05-22T14:34:49.625Z,28.04
2023-05-22T14:37:19.772Z,27.76
2023-05-22T14:39:47.963Z,28.10
2023-05-22T14:42:15.966Z,27.55
2023-05-22T14:44:44.013Z,27.99
2023-05-22T14:47:11.985Z,27.79
2023-05-22T14:49:39.976Z,27.63
2023-05-22T14:52:07.884Z,27.93
2023-05-22T14:54:37.467Z,27.73
2023-05-22T14:57:05.667Z,27.76
2023-05-22T14:59:33.871Z,27.61
2023-05-22T15:02:01.998Z,27.52
2023-05-22T15:04:30.465Z,27.77
2023-05-22T15:06:58.637Z,27.75
2023-05-22T15:09:26.663Z,27.30
2023-05-22T15:11:56.203Z,27.52
2023-05-22T15:14:24.162Z,27.64
2023-05-22T15:16:52.284Z,27.34
2023-05-22T15:19:20.367Z,27.30
2023-05-22T15:21:48.396Z,27.77
2023-05-22T15:24:16.963Z,27.64
2023-05-22T15:26:45.069Z,27.73
2023-05-22T15:29:14.385Z,27.27
2023-05-22T15:31:42.526Z,27.46
2023-05-22T15:34:11.165Z,27.71
2023-05-22T15:36:40.540Z,27.33
2023-05-22T15:39:08.605Z,27.76
2023-05-22T15:41:36.592Z,27.76
2023-05-22T15:44:04.752Z,27.56
2023-05-22T15:46:34.119Z,27.74
2023-05-22T15:49:02.164Z,27.20
2023-05-22T15:51:31.001Z,27.63
2023-05-22T15:53:59.306Z,27.30
2023-05-22T15:56:27.671Z,27.65
2023-05-22T15:58:56.542Z,27.43
2023-05-22T16:01:24.580Z,27.46
2023-05-22T16:03:54.016Z,27.85
2023-05-22T16:06:23.308Z,28.35
2023-05-22T16:08:51.286Z,28.71
2023-05-22T16:11:19.484Z,29.26
2023-05-22T16:13:47.684Z,29.91
2023-05-22T16:16:16.464Z,30.01
2023-05-22T16:18:44.822Z,29.75
2023-05-22T16:21:14.250Z,29.98
2023-05-22T16:23:42.144Z,30.01
2023-05-22T16:26:10.070Z,30.15
2023-05-22T16:28:38.054Z,29.50
2023-05-22T16:31:07.250Z,29.26
2023-05-22T16:33:37.378Z,29.45
2023-05-22T16:36:05.852Z,29.32
2023-05-22T16:38:35.381Z,29.82
2023-05-22T16:41:03.336Z,29.45
2023-05-22T16:43:31.286Z,29.32
2023-05-22T16:45:59.345Z,29.62
2023-05-22T16:48:27.378Z,29.24
2023-05-22T16:50:55.454Z,29.40
2023-05-22T16:53:23.476Z,29.21
2023-05-22T16:55:52.773Z,28.71
2023-05-22T16:58:21.732Z,28.98
2023-05-22T17:00:49.847Z,28.53
2023-05-22T17:03:18.065Z,28.71
2023-05-22T17:05:47.373Z,28.19
2023-05-22T17:08:15.360Z,28.24
2023-05-22T17:10:43.363Z,28.52
2023-05-22T17:13:20.709Z,28.10
2023-05-22T17:15:49.173Z,28.41
2023-05-22T17:18:19.711Z,27.85
2023-05-22T17:20:47.895Z,28.20
2023-05-22T17:23:15.897Z,28.07
2023-05-22T17:25:46.548Z,27.98
2023-05-22T17:28:16.498Z,28.23
2023-05-22T17:30:46.099Z,28.29
2023-05-22T17:33:14.450Z,27.93
2023-05-22T17:35:43.266Z,27.81
2023-05-22T17:38:11.287Z,27.79
2023-05-22T17:40:45.381Z,27.75
2023-05-22T17:43:14.045Z,27.63
2023-05-22T17:45:44.592Z,27.98
2023-05-22T17:48:14.600Z,27.62
2023-05-22T17:50:42.907Z,27.47
2023-05-22T17:53:11.005Z,27.62
2023-05-22T17:55:38.902Z,27.46
2023-05-22T17:58:07.098Z,27.24
2023-05-22T18:00:35.112Z,27.17
2023-05-22T18:03:04.662Z,27.58
2023-05-22T18:05:32.721Z,27.37
2023-05-22T18:08:00.897Z,26.91
2023-05-22T18:10:29.223Z,27.00
2023-05-22T18:12:57.517Z,26.82
2023-05-22T18:15:25.808Z,27.41
2023-05-22T18:17:53.857Z,27.01
2023-05-22T18:20:23.149Z,27.06
2023-05-22T18:22:51.389Z,27.49
2023-05-22T18:25:19.335Z,27.16
2023-05-22T18:27:47.864Z,27.74
2023-05-22T18:30:16.317Z,27.73
2023-05-22T18:32:44.575Z,27.70
2023-05-22T18:35:12.684Z,27.73
2023-05-22T18:37:42.063Z,27.85
2023-05-22T18:40:11.482Z,27.60
2023-05-22T18:42:43.258Z,27.83
2023-05-22T18:45:12.418Z,27.49
2023-05-22T18:47:40.471Z,27.88
2023-05-22T18:50:09.522Z,27.83
2023-05-22T18:52:37.957Z,27.34
2023-05-22T18:55:08.462Z,27.48
2023-05-22T18:57:36.446Z,27.74
2023-05-22T19:00:04.812Z,27.77
2023-05-22T19:02:32.829Z,27.39
2023-05-22T19:05:01.080Z,27.37
2023-05-22T19:07:29.124Z,27.31
2023-05-22T19:09:57.185Z,27.90
2023-05-22T19:12:31.546Z,27.93
2023-05-22T19:14:59.903Z,27.88
2023-05-22T19:17:27.839Z,27.91
2023-05-22T19:19:56.039Z,27.50
2023-05-22T19:22:24.270Z,27.85
2023-05-22T19:24:52.388Z,27.81
2023-05-22T19:27:20.412Z,27.40
2023-05-22T19:29:49.800Z,27.39
2023-05-22T19:32:17.814Z,27.38
2023-05-22T19:34:46.424Z,27.21
2023-05-22T19:37:14.442Z,27.20
2023-05-22T19:39:42.320Z,27.71
2023-05-22T19:42:11.249Z,27.29
2023-05-22T19:44:39.416Z,27.76
2023-05-22T19:47:09.134Z,27.50
2023-05-22T19:49:37.361Z,27.36
2023-05-22T19:52:06.065Z,27.86
2023-05-22T19:54:34.097Z,27.38
2023-05-22T19:57:02.115Z,27.83
2023-05-22T19:59:30.714Z,27.71
2023-05-22T20:01:58.891Z,27.74
2023-05-22T20:04:28.292Z,27.39
2023-05-22T20:06:58.672Z,27.46
2023-05-22T20:09:26.973Z,27.84
2023-05-22T20:11:56.996Z,27.67
2023-05-22T20:14:25.046Z,27.45
2023-05-22T20:16:54.325Z,27.36
2023-05-22T20:19:24.256Z,27.41
2023-05-22T20:21:54.027Z,27.76
2023-05-22T20:24:22.010Z,27.29
2023-05-22T20:26:50.072Z,27.64
2023-05-22T20:29:18.552Z,27.67
2023-05-22T20:31:46.932Z,27.63
2023-05-22T20:34:15.577Z,27.49
2023-05-22T20:36:46.570Z,27.76
2023-05-22T20:39:16.013Z,27.47
2023-05-22T20:41:43.995Z,27.58
2023-05-22T20:44:12.122Z,27.31
2023-05-22T20:46:40.410Z,27.47
2023-05-22T20:49:08.876Z,27.32
2023-05-22T20:51:36.949Z,27.37
2023-05-22T20:54:05.221Z,27.62
2023-05-22T20:56:34.540Z,27.64
2023-05-22T20:59:04.525Z,27.65
2023-05-22T21:01:32.630Z,27.49
2023-05-22T21:04:00.833Z,27.37
2023-05-22T21:06:28.921Z,27.40
2023-05-22T21:08:59.829Z,27.29
2023-05-22T21:11:27.896Z,27.23
2023-05-22T21:13:57.247Z,27.11
2023-05-22T21:16:25.761Z,27.48
2023-05-22T21:18:53.810Z,27.17
2023-05-22T21:21:21.794Z,27.51
2023-05-22T21:23:50.810Z,27.48
2023-05-22T21:26:22.333Z,27.59
2023-05-22T21:28:50.522Z,27.31
2023-05-22T21:31:19.977Z,27.51
2023-05-22T21:33:48.065Z,27.31
2023-05-22T21:36:16.154Z,27.40
2023-05-22T21:38:45.043Z,27.25
2023-05-22T21:41:13.062Z,27.39
2023-05-22T21:43:41.122Z,27.38
2023-05-22T21:46:09.297Z,27.45
2023-05-22T21:48:38.781Z,27.53
2023-05-22T21:51:07.043Z,27.59
2023-05-22T21:53:34.921Z,27.63
2023-05-22T21:56:03.032Z,27.79
2023-05-22T21:58:31.100Z,27.45
2023-05-22T22:01:01.622Z,27.67
2023-05-22T22:03:29.634Z,27.74
2023-05-22T22:05:59.746Z,27.64
2023-05-22T22:08:28.323Z,27.88
2023-05-22T22:10:58.301Z,27.76
2023-05-22T22:13:26.417Z,28.18
2023-05-22T22:15:54.959Z,27.81
2023-05-22T22:18:22.950Z,28.13
2023-05-22T22:20:54.080Z,28.22
2023-05-22T22:23:23.505Z,27.98
2023-05-22T22:25:51.407Z,28.19
2023-05-22T22:28:19.422Z,28.08
2023-05-22T22:30:47.888Z,28.24
2023-05-22T22:33:16.014Z,28.29
2023-05-22T22:35:44.161Z,28.30
2023-05-22T22:38:12.146Z,28.46
2023-05-22T22:40:41.836Z,28.15
2023-05-22T22:43:10.396Z,28.20
2023-05-22T22:45:39.889Z,28.60
2023-05-22T22:48:08.217Z,28.22
2023-05-22T22:50:36.185Z,28.32
2023-05-22T22:53:04.230Z,28.42
2023-05-22T22:55:32.299Z,28.38
2023-05-22T22:58:02.531Z,28.35
2023-05-22T23:00:30.665Z,28.42
2023-05-22T23:02:58.709Z,28.62
2023-05-22T23:05:26.963Z,28.28
2023-05-22T23:07:55.066Z,28.56
2023-05-22T23:10:23.338Z,28.62
2023-05-22T23:12:51.340Z,28.24
2023-05-22T23:15:21.282Z,28.31
2023-05-22T23:17:51.604Z,28.54
2023-05-22T23:20:19.884Z,28.48
2023-05-22T23:22:47.885Z,28.61
2023-05-22T23:25:15.875Z,28.38
2023-05-22T23:27:44.035Z,28.59
2023-05-22T23:30:12.854Z,28.59
2023-05-22T23:32:42.293Z,28.66
2023-05-22T23:35:11.193Z,28.68
2023-05-22T23:37:39.230Z,28.83
2023-05-22T23:40:08.859Z,28.89
2023-05-22T23:42:37.466Z,28.85
2023-05-22T23:45:06.320Z,28.63
2023-05-22T23:47:34.295Z,28.85
2023-05-22T23:50:03.786Z,28.67
2023-05-22T23:52:32.106Z,28.80
2023-05-22T23:55:00.721Z,28.74
2023-05-22T23:57:28.860Z,28.77
2023-05-22T23:59:56.916Z,28.97
